Pagrindinis puslapis
METAR-TAF:

METAR-TAF

Oro uostai :

Bagdadas, Irakas

platuma: 33-15-45N, ilguma: 44-14-04E, Aukštis: 35 m

Dabartinis oras

Ataskaita buvo paskelbta 40 minutes, ne 07:00 UTC
Vėjas 7 kt iš Šiaurės/Šiaurės Vakarų
Temperatūra 37°C
Drėgmė 20%
Slėgis 1006 hPa
Matomumas: 9000 m

METAR: ORBI 140700Z 34007KT 9000 NSC 37/10 Q1006

Laikas: 10:40 (07:40 UTC)

Prognozė

Ataskaita buvo paskelbta 3 valandos ir 40 minutes, ne 04:00 UTC
Prognozė galioja nuo 14 metu 06 UTC su 15 metu 06 UTC
Vėjas 2 kt nuo kintamojo kryptimis
Matomumas: 8000 m
Tapsmas
nuo 14 metu 09 UTC su 14 metu 11 UTC
Vėjas 10 kt iš Šiaurės Vakarų

TAF: ORBI 140400Z 1406/1506 VRB02KT 8000 NSC BECMG 1409/1411 32010KT

Orai ataskaitas ir orų prognozės (METAR, TAF).

turimą stotys yra geltonos ir raudonos taškus žemėlapyje.

Perkelti pele per norėdami pamatyti stoties vardą.

Tada spustelėkite, norėdami matyti oro stebėjimo ir prognozės.

Norėdami pakeisti žemėlapį: spustelėkite ant žalios mygtukų su juodo kryžiaus žemyn,; žalią mygtuką su brūkšneliu, jei norite nutolinti; arba žalių rodyklių gretimoms žemėlapius.


METAR-TAF: